Time;durP1;ratioP1;P1;durP2;ratioP2;P2;SDS_P1;SDS_P2;PMS_P1;PMS_P2;Temp;Humidity;BMP_temperature;BMP_pressure;BME280_temperature;BME280_humidity;BME280_pressure;Samples;Min_cycle;Max_cycle;Signal;HPM_P1;HPM_P2
2022/01/16 00:04:39;;;;;;;;;40.67;36.67;;;;;;;;4992649;28;45559;-82
2022/01/16 00:07:04;;;;;;;;;41.00;38.67;;;;;;;;4992714;28;45512;-82
2022/01/16 00:09:30;;;;;;;;;40.67;37.67;;;;;;;;4992200;28;45545;-82
2022/01/16 00:11:59;;;;;;;;;42.00;35.25;;;;;;;;4992616;28;45557;-82
2022/01/16 00:14:25;;;;;;;;;41.00;37.50;;;;;;;;4974501;28;45600;-82
2022/01/16 00:16:50;;;;;;;;;41.75;36.25;;;;;;;;4993148;28;45514;-82
2022/01/16 00:19:16;;;;;;;;;45.67;41.00;;;;;;;;4974286;28;48152;-82
2022/01/16 00:21:42;;;;;;;;;46.00;42.00;;;;;;;;4974162;28;45537;-82
2022/01/16 00:24:08;;;;;;;;;35.75;30.00;;;;;;;;4992567;28;45463;-82
2022/01/16 00:26:33;;;;;;;;;42.00;36.50;;;;;;;;4991899;28;45415;-81
2022/01/16 00:28:58;;;;;;;;;46.00;39.50;;;;;;;;4974582;28;47165;-82
2022/01/16 00:31:24;;;;;;;;;48.50;37.75;;;;;;;;4973934;28;45754;-82
2022/01/16 00:33:50;;;;;;;;;44.50;39.50;;;;;;;;4992309;28;45510;-82
2022/01/16 00:36:17;;;;;;;;;43.50;39.25;;;;;;;;4991965;28;45403;-82
2022/01/16 00:38:44;;;;;;;;;42.50;36.00;;;;;;;;4974543;28;47263;-82
2022/01/16 00:41:10;;;;;;;;;44.00;39.50;;;;;;;;4991089;28;45618;-81
2022/01/16 00:43:35;;;;;;;;;40.50;35.75;;;;;;;;4992214;28;45445;-82
2022/01/16 00:46:00;;;;;;;;;49.33;40.67;;;;;;;;4992121;28;45636;-82
2022/01/16 00:48:25;;;;;;;;;41.33;37.33;;;;;;;;4991440;28;45516;-82
2022/01/16 00:50:51;;;;;;;;;35.00;34.67;;;;;;;;4992218;28;45454;-82
2022/01/16 00:53:16;;;;;;;;;33.00;30.00;;;;;;;;4974075;28;45433;-82
2022/01/16 00:55:41;;;;;;;;;37.67;33.33;;;;;;;;4991378;28;45497;-81
2022/01/16 00:58:06;;;;;;;;;38.33;35.67;;;;;;;;4992093;28;45800;-82
2022/01/16 01:00:32;;;;;;;;;40.00;37.25;;;;;;;;4973627;28;45418;-82
2022/01/16 01:02:58;;;;;;;;;41.00;37.75;;;;;;;;4974214;28;45442;-82
2022/01/16 01:05:23;;;;;;;;;40.00;36.25;;;;;;;;4991724;28;45351;-82
2022/01/16 01:07:48;;;;;;;;;44.33;33.67;;;;;;;;4991676;28;45914;-82
2022/01/16 01:10:14;;;;;;;;;42.33;36.33;;;;;;;;4973329;28;45438;-82
2022/01/16 01:12:56;;;;;;;;;44.33;38.67;;;;;;;;4991560;28;45525;-82
2022/01/16 01:15:26;;;;;;;;;41.75;38.00;;;;;;;;4973372;28;45696;-82
2022/01/16 01:17:51;;;;;;;;;39.00;36.25;;;;;;;;4991726;28;45614;-82
2022/01/16 01:20:18;;;;;;;;;38.75;32.25;;;;;;;;4991262;28;45482;-81
2022/01/16 01:22:47;;;;;;;;;44.50;39.50;;;;;;;;4991622;28;45535;-82
2022/01/16 01:25:13;;;;;;;;;34.50;33.25;;;;;;;;4973145;28;45523;-82
2022/01/16 01:27:41;;;;;;;;;38.00;34.00;;;;;;;;4973683;28;48133;-82
2022/01/16 01:30:09;;;;;;;;;37.00;32.00;;;;;;;;4991388;28;45394;-82
2022/01/16 01:32:36;;;;;;;;;45.50;37.25;;;;;;;;4990634;28;45478;-82
2022/01/16 01:35:02;;;;;;;;;38.25;31.25;;;;;;;;4973874;28;45417;-82
2022/01/16 01:37:27;;;;;;;;;37.00;32.25;;;;;;;;4990622;28;45438;-82
2022/01/16 01:39:53;;;;;;;;;41.50;31.25;;;;;;;;4973064;28;45837;-82
2022/01/16 01:42:18;;;;;;;;;41.00;33.75;;;;;;;;4991310;28;45949;-82
2022/01/16 01:52:55;;;;;;;;;30.75;27.50;;;;;;;;4990618;28;45419;-82
2022/01/16 01:55:21;;;;;;;;;47.25;40.00;;;;;;;;4990652;28;45575;-81
2022/01/16 01:57:46;;;;;;;;;41.50;36.50;;;;;;;;4991155;28;46404;-82
2022/01/16 02:00:17;;;;;;;;;36.00;30.67;;;;;;;;4990764;28;45403;-82
2022/01/16 02:03:01;;;;;;;;;48.00;39.00;;;;;;;;4990581;28;45657;-82
2022/01/16 02:05:26;;;;;;;;;39.00;33.75;;;;;;;;4990093;28;45424;-82
2022/01/16 02:07:52;;;;;;;;;52.67;34.67;;;;;;;;4973774;28;48642;-82
2022/01/16 02:10:17;;;;;;;;;46.00;40.33;;;;;;;;4990065;28;45537;-81
2022/01/16 02:12:44;;;;;;;;;39.75;35.75;;;;;;;;4972930;28;45531;-82
2022/01/16 02:29:27;;;;;;;;;38.00;33.75;;;;;;;;4990722;28;45449;-82
2022/01/16 02:31:42;;;;;;;;;42.00;34.75;;;;;;;;4989875;28;45931;-82
2022/01/16 02:37:06;;;;;;;;;51.75;42.25;;;;;;;;4977076;28;45818;-82
2022/01/16 02:39:36;;;;;;;;;47.50;41.00;;;;;;;;4989761;28;46172;-82
2022/01/16 02:42:02;;;;;;;;;44.25;36.75;;;;;;;;4972564;28;45826;-82
2022/01/16 02:46:57;;;;;;;;;44.33;38.67;;;;;;;;4990479;28;45499;-82
2022/01/16 02:49:24;;;;;;;;;48.25;39.25;;;;;;;;4990106;28;46308;-82
2022/01/16 02:51:50;;;;;;;;;35.25;34.25;;;;;;;;4972402;28;45646;-82
2022/01/16 02:54:16;;;;;;;;;45.25;41.25;;;;;;;;4971892;28;45353;-82
2022/01/16 02:56:41;;;;;;;;;49.67;42.00;;;;;;;;4990503;28;45574;-82
2022/01/16 02:59:09;;;;;;;;;46.00;40.67;;;;;;;;4972007;28;48513;-82
2022/01/16 03:01:34;;;;;;;;;46.75;37.50;;;;;;;;4989554;28;45554;-82
2022/01/16 03:04:00;;;;;;;;;40.50;36.00;;;;;;;;4995947;28;45412;-82
2022/01/16 03:06:28;;;;;;;;;52.67;40.33;;;;;;;;4978375;28;45249;-82
2022/01/16 03:08:53;;;;;;;;;45.75;38.75;;;;;;;;4996463;28;46368;-82
2022/01/16 03:13:48;;;;;;;;;57.25;41.75;;;;;;;;4996805;28;45488;-82
2022/01/16 03:16:18;;;;;;;;;46.50;41.50;;;;;;;;4978370;28;46844;-82
2022/01/16 03:24:11;;;;;;;;;42.75;37.00;;;;;;;;4996053;28;45461;-82
2022/01/16 03:26:36;;;;;;;;;48.25;41.75;;;;;;;;4996562;28;45772;-81
2022/01/16 03:29:02;;;;;;;;;57.00;42.00;;;;;;;;4978395;28;47952;-82
2022/01/16 03:31:27;;;;;;;;;46.75;38.25;;;;;;;;4977497;28;45390;-82
2022/01/16 03:33:52;;;;;;;;;47.67;40.67;;;;;;;;4978686;28;45417;-81
2022/01/16 03:36:17;;;;;;;;;49.00;41.00;;;;;;;;4995964;28;45526;-82
2022/01/16 03:38:42;;;;;;;;;47.33;39.00;;;;;;;;4995680;28;46353;-82
2022/01/16 03:41:08;;;;;;;;;49.33;39.33;;;;;;;;4995972;28;45409;-82
2022/01/16 03:43:33;;;;;;;;;46.00;39.33;;;;;;;;4978412;28;45568;-82
2022/01/16 03:46:00;;;;;;;;;50.33;41.00;;;;;;;;4996076;28;45458;-82
2022/01/16 03:48:25;;;;;;;;;50.50;43.75;;;;;;;;4995634;28;45852;-82
2022/01/16 03:50:50;;;;;;;;;38.50;35.50;;;;;;;;4978372;28;45394;-82
2022/01/16 03:53:17;;;;;;;;;49.67;42.00;;;;;;;;4995474;28;45420;-81
2022/01/16 03:55:42;;;;;;;;;50.50;42.00;;;;;;;;4978516;28;45658;-82
2022/01/16 03:58:07;;;;;;;;;44.00;37.33;;;;;;;;4996063;28;45748;-82
2022/01/16 04:00:32;;;;;;;;;53.00;43.33;;;;;;;;4995471;28;45592;-82
2022/01/16 04:02:58;;;;;;;;;61.67;44.00;;;;;;;;4996639;28;45634;-82
2022/01/16 04:05:23;;;;;;;;;50.33;41.00;;;;;;;;4995206;28;45484;-82
2022/01/16 04:07:48;;;;;;;;;45.67;41.67;;;;;;;;4994872;28;45520;-82
2022/01/16 04:10:13;;;;;;;;;41.67;33.33;;;;;;;;4995808;28;45603;-82
2022/01/16 04:12:39;;;;;;;;;55.00;41.75;;;;;;;;4996186;28;45513;-82
2022/01/16 04:17:40;;;;;;;;;46.75;41.00;;;;;;;;4992650;28;45490;-82
2022/01/16 04:20:05;;;;;;;;;45.75;38.50;;;;;;;;4974526;28;45446;-82
2022/01/16 04:22:30;;;;;;;;;44.25;38.00;;;;;;;;4991584;28;45403;-82
2022/01/16 04:24:56;;;;;;;;;50.00;42.00;;;;;;;;4993127;28;45742;-82
2022/01/16 04:27:21;;;;;;;;;48.67;42.00;;;;;;;;4991943;28;45766;-82
2022/01/16 04:29:46;;;;;;;;;47.67;42.33;;;;;;;;4974287;28;45584;-82
2022/01/16 04:32:12;;;;;;;;;44.67;40.67;;;;;;;;4974405;28;45715;-81
2022/01/16 04:34:38;;;;;;;;;51.50;43.50;;;;;;;;4992267;28;45470;-82
2022/01/16 04:37:03;;;;;;;;;50.00;42.50;;;;;;;;4991640;28;46271;-83
2022/01/16 04:39:33;;;;;;;;;50.25;44.00;;;;;;;;4973627;28;45587;-82
2022/01/16 04:44:44;;;;;;;;;58.00;44.50;;;;;;;;4992063;28;45382;-82
2022/01/16 04:47:09;;;;;;;;;48.75;43.50;;;;;;;;4974058;28;46928;-82
2022/01/16 04:49:34;;;;;;;;;59.33;46.67;;;;;;;;4974105;28;45511;-82
2022/01/16 04:52:00;;;;;;;;;45.67;41.00;;;;;;;;4991888;28;45470;-82
2022/01/16 04:54:25;;;;;;;;;41.25;40.00;;;;;;;;4973745;28;45495;-82
2022/01/16 04:56:51;;;;;;;;;57.33;42.00;;;;;;;;4992299;28;45681;-82
2022/01/16 04:59:16;;;;;;;;;51.25;42.75;;;;;;;;4991527;28;45378;-82
2022/01/16 05:01:41;;;;;;;;;62.00;47.00;;;;;;;;4974191;28;45505;-82
2022/01/16 05:04:07;;;;;;;;;54.67;41.33;;;;;;;;4974222;28;45615;-82
2022/01/16 05:06:32;;;;;;;;;47.75;41.25;;;;;;;;4990584;28;45616;-82
2022/01/16 05:08:57;;;;;;;;;45.33;38.67;;;;;;;;4991902;28;45427;-81
2022/01/16 05:11:25;;;;;;;;;54.50;41.00;;;;;;;;4991751;28;45364;-82
2022/01/16 05:19:00;;;;;;;;;44.25;40.00;;;;;;;;4991653;28;45535;-82
2022/01/16 05:21:25;;;;;;;;;59.75;45.00;;;;;;;;4972859;28;45384;-82
2022/01/16 05:23:51;;;;;;;;;48.33;41.33;;;;;;;;4991698;28;45352;-83
2022/01/16 05:26:18;;;;;;;;;54.33;41.00;;;;;;;;4990584;28;48064;-81
2022/01/16 05:28:43;;;;;;;;;44.25;39.75;;;;;;;;4991115;28;45637;-82
2022/01/16 05:31:08;;;;;;;;;43.75;36.50;;;;;;;;4991600;28;45574;-82
2022/01/16 05:33:34;;;;;;;;;39.00;31.00;;;;;;;;4973484;28;45821;-82
2022/01/16 05:35:59;;;;;;;;;40.00;34.33;;;;;;;;4972978;28;48097;-82
2022/01/16 05:38:24;;;;;;;;;40.00;32.67;;;;;;;;4973147;28;45509;-79
2022/01/16 05:40:50;;;;;;;;;43.33;34.00;;;;;;;;4973699;28;45550;-81
2022/01/16 05:43:15;;;;;;;;;34.50;30.50;;;;;;;;4972799;28;45611;-82
2022/01/16 05:45:40;;;;;;;;;39.33;29.00;;;;;;;;4991137;28;46597;-82
2022/01/16 05:48:05;;;;;;;;;31.33;31.33;;;;;;;;4990923;28;45488;-82
2022/01/16 05:50:31;;;;;;;;;19.00;16.00;;;;;;;;4990546;28;45316;-82
2022/01/16 05:52:57;;;;;;;;;35.75;27.25;;;;;;;;4991539;28;45404;-82
2022/01/16 05:55:22;;;;;;;;;34.50;30.50;;;;;;;;4990420;28;45436;-81
2022/01/16 05:57:48;;;;;;;;;28.50;25.75;;;;;;;;4991189;28;45369;-82
2022/01/16 06:00:14;;;;;;;;;27.00;23.00;;;;;;;;4990959;28;45508;-82
2022/01/16 06:02:39;;;;;;;;;24.75;22.50;;;;;;;;4991028;28;45997;-82
2022/01/16 06:05:05;;;;;;;;;30.75;26.00;;;;;;;;4990028;28;45474;-82
2022/01/16 06:07:30;;;;;;;;;32.25;26.75;;;;;;;;4972798;28;45409;-82
2022/01/16 06:09:55;;;;;;;;;28.67;23.67;;;;;;;;4991350;28;45283;-82
2022/01/16 06:12:21;;;;;;;;;33.25;27.75;;;;;;;;4972329;28;45556;-82
2022/01/16 06:14:46;;;;;;;;;25.67;23.00;;;;;;;;4990461;28;45606;-82
2022/01/16 06:17:11;;;;;;;;;30.67;22.00;;;;;;;;4990711;28;45363;-82
2022/01/16 06:19:36;;;;;;;;;26.00;23.33;;;;;;;;4990939;28;45448;-82
2022/01/16 06:22:02;;;;;;;;;24.67;22.00;;;;;;;;4990333;28;45459;-82
2022/01/16 06:24:27;;;;;;;;;26.50;23.25;;;;;;;;4990121;28;45524;-82
2022/01/16 06:26:52;;;;;;;;;33.33;23.67;;;;;;;;4991115;28;45443;-82
2022/01/16 06:29:20;;;;;;;;;24.33;22.00;;;;;;;;4990190;28;45281;-82
2022/01/16 06:31:45;;;;;;;;;22.50;20.00;;;;;;;;4990824;28;45462;-82
2022/01/16 06:34:10;;;;;;;;;19.00;13.00;;;;;;;;4972553;28;47134;-82
2022/01/16 06:36:36;;;;;;;;;23.50;19.25;;;;;;;;4990000;28;45587;-82
2022/01/16 06:39:09;;;;;;;;;25.00;22.25;;;;;;;;4990177;28;45550;-82
2022/01/16 06:41:34;;;;;;;;;26.75;22.25;;;;;;;;4990648;28;45635;-82
2022/01/16 06:43:59;;;;;;;;;25.75;22.50;;;;;;;;4990194;28;45423;-82
2022/01/16 06:46:25;;;;;;;;;24.75;20.75;;;;;;;;4990239;28;45484;-82
2022/01/16 06:48:50;;;;;;;;;24.25;20.75;;;;;;;;4990590;28;45439;-82
2022/01/16 06:51:18;;;;;;;;;24.33;20.67;;;;;;;;4989510;28;45355;-82
2022/01/16 06:53:44;;;;;;;;;29.75;25.00;;;;;;;;4990609;28;46543;-82
2022/01/16 06:56:09;;;;;;;;;24.00;20.25;;;;;;;;4990258;28;45352;-82
2022/01/16 06:58:34;;;;;;;;;26.33;21.33;;;;;;;;4990079;28;45582;-82
2022/01/16 07:00:59;;;;;;;;;21.33;19.67;;;;;;;;4990475;28;45448;-82
2022/01/16 07:03:24;;;;;;;;;23.00;21.67;;;;;;;;4989676;28;46052;-82
2022/01/16 07:05:50;;;;;;;;;23.67;21.67;;;;;;;;4989322;28;45556;-82
2022/01/16 07:08:15;;;;;;;;;27.00;24.67;;;;;;;;4990021;28;45292;-82
2022/01/16 07:10:40;;;;;;;;;20.00;19.00;;;;;;;;4990392;28;45360;-82
2022/01/16 07:13:06;;;;;;;;;20.00;20.00;;;;;;;;4971684;28;48274;-82
2022/01/16 07:15:31;;;;;;;;;27.75;24.00;;;;;;;;4990018;28;45306;-82
2022/01/16 07:17:57;;;;;;;;;16.00;15.33;;;;;;;;4972460;28;45595;-82
2022/01/16 07:20:22;;;;;;;;;33.00;26.25;;;;;;;;4989057;28;45998;-82
2022/01/16 07:22:47;;;;;;;;;40.00;29.00;;;;;;;;4990130;28;45528;-82
2022/01/16 07:25:13;;;;;;;;;24.67;20.33;;;;;;;;4989546;28;45969;-82
2022/01/16 07:27:38;;;;;;;;;23.25;23.25;;;;;;;;4989610;28;45515;-82
2022/01/16 07:30:05;;;;;;;;;29.50;20.75;;;;;;;;4972116;28;45629;-82
2022/01/16 07:32:30;;;;;;;;;25.00;21.75;;;;;;;;4989363;28;45563;-81
2022/01/16 07:34:55;;;;;;;;;32.33;23.33;;;;;;;;4989263;28;45327;-82
2022/01/16 07:37:21;;;;;;;;;27.75;25.75;;;;;;;;4972081;28;45470;-82
2022/01/16 07:39:47;;;;;;;;;32.33;26.67;;;;;;;;4990177;28;45484;-82
2022/01/16 07:42:12;;;;;;;;;31.00;24.00;;;;;;;;4989014;28;45483;-81
2022/01/16 07:44:38;;;;;;;;;26.00;19.67;;;;;;;;4972047;28;45545;-82
2022/01/16 07:47:03;;;;;;;;;24.67;23.67;;;;;;;;4989913;28;45307;-82
2022/01/16 07:49:28;;;;;;;;;23.25;21.75;;;;;;;;4989335;28;45736;-82
2022/01/16 07:51:53;;;;;;;;;20.00;19.00;;;;;;;;4992952;28;45561;-82
2022/01/16 07:54:19;;;;;;;;;29.00;23.00;;;;;;;;4975082;28;46054;-83
2022/01/16 07:56:45;;;;;;;;;32.00;27.50;;;;;;;;4992999;28;45542;-82
2022/01/16 07:59:10;;;;;;;;;21.75;19.75;;;;;;;;4992768;28;45483;-82
2022/01/16 08:01:35;;;;;;;;;25.67;21.67;;;;;;;;4992735;28;46158;-82
2022/01/16 08:04:00;;;;;;;;;26.00;22.67;;;;;;;;4974422;28;45398;-82
2022/01/16 08:06:25;;;;;;;;;25.67;24.00;;;;;;;;4974520;28;45388;-82
2022/01/16 08:08:51;;;;;;;;;26.33;24.33;;;;;;;;4993316;28;45583;-82
2022/01/16 08:11:16;;;;;;;;;27.25;26.50;;;;;;;;4991963;28;46225;-82
2022/01/16 08:13:41;;;;;;;;;26.00;23.67;;;;;;;;4975060;28;45428;-82
2022/01/16 08:16:07;;;;;;;;;27.33;25.00;;;;;;;;4992683;28;45494;-81
2022/01/16 08:18:35;;;;;;;;;27.67;20.33;;;;;;;;4992519;28;45695;-82
2022/01/16 08:21:00;;;;;;;;;25.75;20.25;;;;;;;;4974734;28;46977;-82
2022/01/16 08:23:26;;;;;;;;;25.25;24.00;;;;;;;;4991747;28;45516;-82
2022/01/16 08:25:51;;;;;;;;;25.50;23.25;;;;;;;;4992606;28;45399;-82
2022/01/16 08:28:17;;;;;;;;;32.33;27.67;;;;;;;;4992330;28;45799;-82
2022/01/16 08:30:42;;;;;;;;;26.75;22.75;;;;;;;;4992648;28;46403;-82
2022/01/16 08:33:07;;;;;;;;;27.00;24.33;;;;;;;;4991695;28;45427;-82
2022/01/16 08:35:32;;;;;;;;;22.00;18.67;;;;;;;;4992371;28;45567;-82
2022/01/16 08:37:58;;;;;;;;;27.00;24.67;;;;;;;;4991865;28;45689;-82
2022/01/16 08:40:23;;;;;;;;;27.00;24.33;;;;;;;;4973572;28;47606;-82
2022/01/16 08:42:48;;;;;;;;;29.00;24.67;;;;;;;;4974589;28;45381;-82
2022/01/16 08:45:13;;;;;;;;;28.67;25.33;;;;;;;;4991989;28;45677;-82
2022/01/16 08:47:39;;;;;;;;;23.67;22.00;;;;;;;;4974409;28;45338;-82
2022/01/16 08:50:05;;;;;;;;;23.75;21.00;;;;;;;;4973808;28;47910;-82
2022/01/16 08:52:31;;;;;;;;;27.00;22.50;;;;;;;;4991807;28;45688;-82
2022/01/16 08:54:56;;;;;;;;;20.67;19.00;;;;;;;;4992129;28;45344;-82
2022/01/16 08:57:21;;;;;;;;;23.67;20.67;;;;;;;;4991603;28;45467;-82
2022/01/16 08:59:47;;;;;;;;;21.33;18.33;;;;;;;;4991653;28;47967;-82
2022/01/16 09:02:13;;;;;;;;;22.25;18.75;;;;;;;;4973150;28;45904;-82
2022/01/16 09:04:38;;;;;;;;;20.67;17.33;;;;;;;;4991518;28;45439;-82
2022/01/16 09:07:03;;;;;;;;;18.33;18.00;;;;;;;;4991452;28;45385;-82
2022/01/16 09:09:30;;;;;;;;;20.75;17.00;;;;;;;;4973188;28;47223;-82
2022/01/16 09:11:55;;;;;;;;;29.50;23.25;;;;;;;;4973919;28;45703;-82
2022/01/16 09:14:21;;;;;;;;;31.00;27.00;;;;;;;;4973872;28;45490;-82
2022/01/16 09:16:46;;;;;;;;;29.00;23.00;;;;;;;;4991844;28;45461;-82
2022/01/16 09:19:11;;;;;;;;;20.67;18.33;;;;;;;;4973007;28;48231;-82
2022/01/16 09:21:36;;;;;;;;;19.33;16.67;;;;;;;;4973378;28;45626;-82
2022/01/16 09:24:02;;;;;;;;;15.67;14.67;;;;;;;;4992039;28;45535;-82
2022/01/16 09:26:27;;;;;;;;;17.25;16.25;;;;;;;;4991313;28;45393;-82
2022/01/16 09:28:52;;;;;;;;;21.00;18.33;;;;;;;;4991774;28;46478;-82
2022/01/16 09:31:18;;;;;;;;;21.33;20.33;;;;;;;;4991286;28;45544;-82
2022/01/16 09:33:43;;;;;;;;;21.75;15.50;;;;;;;;4990963;28;45336;-82
2022/01/16 09:36:09;;;;;;;;;13.33;10.67;;;;;;;;4991445;28;45529;-82
2022/01/16 09:38:35;;;;;;;;;18.50;15.25;;;;;;;;4991049;28;46398;-82
2022/01/16 09:41:00;;;;;;;;;18.25;17.50;;;;;;;;4991095;28;45497;-82
2022/01/16 09:43:26;;;;;;;;;20.75;18.75;;;;;;;;4991221;28;45383;-82
2022/01/16 09:45:54;;;;;;;;;20.25;17.00;;;;;;;;4973903;28;45449;-82
2022/01/16 09:48:20;;;;;;;;;18.25;16.50;;;;;;;;4990627;28;46095;-82
2022/01/16 09:50:45;;;;;;;;;17.25;14.50;;;;;;;;4991505;28;45717;-82
2022/01/16 09:53:12;;;;;;;;;15.33;13.67;;;;;;;;4990768;28;45476;-83
2022/01/16 09:55:37;;;;;;;;;21.00;16.50;;;;;;;;4991304;28;45774;-82
2022/01/16 09:58:02;;;;;;;;;19.33;15.00;;;;;;;;4990953;28;45813;-82
2022/01/16 10:00:28;;;;;;;;;22.67;17.33;;;;;;;;4990619;28;45360;-82
2022/01/16 10:02:53;;;;;;;;;18.75;15.75;;;;;;;;4972911;28;45601;-82
2022/01/16 10:05:29;;;;;;;;;15.50;14.00;;;;;;;;4973082;28;45548;-82
2022/01/16 10:07:56;;;;;;;;;16.00;14.00;;;;;;;;4990992;28;45506;-82
2022/01/16 10:10:29;;;;;;;;;17.75;17.00;;;;;;;;4990539;28;45486;-82
2022/01/16 10:13:03;;;;;;;;;23.25;20.25;;;;;;;;4972667;28;45407;-82
2022/01/16 10:15:28;;;;;;;;;20.50;18.25;;;;;;;;4990700;28;45577;-82
2022/01/16 10:17:58;;;;;;;;;24.00;20.67;;;;;;;;4972709;28;46652;-82
2022/01/16 10:20:24;;;;;;;;;17.25;15.50;;;;;;;;4990313;28;45355;-82
2022/01/16 10:22:57;;;;;;;;;17.50;16.25;;;;;;;;4990938;28;45382;-82
2022/01/16 10:25:47;;;;;;;;;16.75;16.75;;;;;;;;4972449;28;45616;-82
2022/01/16 10:28:14;;;;;;;;;23.50;19.25;;;;;;;;4969948;28;47169;-83
2022/01/16 10:30:40;;;;;;;;;19.25;18.00;;;;;;;;4990923;28;45535;-82
2022/01/16 10:33:09;;;;;;;;;19.25;16.75;;;;;;;;4989885;28;45511;-82
2022/01/16 10:35:39;;;;;;;;;19.00;17.00;;;;;;;;4972590;28;45592;-81
2022/01/16 10:38:07;;;;;;;;;16.75;14.25;;;;;;;;4989848;28;46774;-82
2022/01/16 10:40:37;;;;;;;;;16.75;15.50;;;;;;;;4989676;28;45596;-82
2022/01/16 10:43:15;;;;;;;;;15.50;14.00;;;;;;;;4990812;28;45518;-82
2022/01/16 10:45:42;;;;;;;;;20.50;17.75;;;;;;;;4990760;28;45638;-82
2022/01/16 10:48:07;;;;;;;;;18.75;17.50;;;;;;;;4972281;28;47066;-82
2022/01/16 10:50:35;;;;;;;;;18.33;17.00;;;;;;;;4972537;28;45430;-82
2022/01/16 10:53:05;;;;;;;;;22.00;18.75;;;;;;;;4990217;28;45413;-82
2022/01/16 10:55:31;;;;;;;;;22.50;18.50;;;;;;;;4972047;28;45409;-82
2022/01/16 10:58:01;;;;;;;;;22.00;19.00;;;;;;;;4990270;28;45816;-82
2022/01/16 11:00:26;;;;;;;;;23.50;19.50;;;;;;;;4972025;28;45895;-82
2022/01/16 11:02:52;;;;;;;;;19.33;17.00;;;;;;;;4990116;28;45327;-82
2022/01/16 11:05:21;;;;;;;;;23.25;19.00;;;;;;;;4989870;28;45484;-82
2022/01/16 11:07:54;;;;;;;;;21.25;17.75;;;;;;;;4972249;28;49234;-82
2022/01/16 11:10:28;;;;;;;;;21.50;18.00;;;;;;;;4989887;28;45790;-82
2022/01/16 11:12:55;;;;;;;;;22.75;20.00;;;;;;;;4972653;28;45457;-82
2022/01/16 11:15:20;;;;;;;;;20.50;19.00;;;;;;;;4989711;28;45475;-82
2022/01/16 11:17:46;;;;;;;;;24.75;21.75;;;;;;;;4989431;28;46501;-81
2022/01/16 11:20:12;;;;;;;;;27.00;23.00;;;;;;;;4989682;28;45426;-82
2022/01/16 11:25:31;;;;;;;;;22.75;20.00;;;;;;;;4992712;28;45499;-82
2022/01/16 11:28:26;;;;;;;;;21.50;19.50;;;;;;;;4993809;28;45494;-82
2022/01/16 11:30:52;;;;;;;;;22.75;20.50;;;;;;;;4979897;28;46071;-82
2022/01/16 11:33:18;;;;;;;;;22.75;20.00;;;;;;;;4975187;28;45430;-82
2022/01/16 11:35:45;;;;;;;;;22.00;19.00;;;;;;;;4993748;28;45462;-82
2022/01/16 11:38:11;;;;;;;;;20.25;19.00;;;;;;;;4992338;28;46344;-82
2022/01/16 11:40:42;;;;;;;;;21.50;19.25;;;;;;;;4992979;28;45532;-82
2022/01/16 11:43:11;;;;;;;;;21.75;19.50;;;;;;;;4993400;28;45551;-83
2022/01/16 11:45:52;;;;;;;;;29.75;26.50;;;;;;;;4993064;28;46052;-82
2022/01/16 11:48:37;;;;;;;;;23.50;21.50;;;;;;;;4974961;28;47911;-82
2022/01/16 11:51:04;;;;;;;;;24.75;23.00;;;;;;;;4993091;28;45454;-82
2022/01/16 11:53:48;;;;;;;;;25.75;23.25;;;;;;;;4974315;28;45815;-82
2022/01/16 11:56:31;;;;;;;;;26.00;23.00;;;;;;;;4992508;28;45378;-83
2022/01/16 11:59:12;;;;;;;;;21.75;20.25;;;;;;;;4975253;28;46289;-82
2022/01/16 12:01:45;;;;;;;;;30.50;23.00;;;;;;;;4974401;28;45751;-82
2022/01/16 12:04:28;;;;;;;;;23.00;19.00;;;;;;;;4992696;28;45517;-83
2022/01/16 12:06:54;;;;;;;;;19.25;14.50;;;;;;;;4992860;28;45447;-82
2022/01/16 12:09:35;;;;;;;;;20.50;18.75;;;;;;;;4992238;28;47301;-82
2022/01/16 12:12:01;;;;;;;;;31.75;31.00;;;;;;;;4974942;28;45873;-82
2022/01/16 12:14:45;;;;;;;;;24.00;22.25;;;;;;;;4974407;28;45350;-82
2022/01/16 12:17:26;;;;;;;;;21.25;19.00;;;;;;;;4974084;28;45604;-82
2022/01/16 12:19:52;;;;;;;;;23.75;21.00;;;;;;;;4992791;28;45568;-82
2022/01/16 12:22:37;;;;;;;;;17.00;16.00;;;;;;;;4974060;28;45844;-82
2022/01/16 12:25:04;;;;;;;;;17.00;16.75;;;;;;;;4974895;28;45538;-82
2022/01/16 12:27:39;;;;;;;;;24.75;23.50;;;;;;;;4992470;28;45623;-81
2022/01/16 12:30:08;;;;;;;;;24.25;23.25;;;;;;;;4992239;28;47076;-82
2022/01/16 12:32:50;;;;;;;;;23.25;22.00;;;;;;;;4974128;28;45477;-82
2022/01/16 12:35:35;;;;;;;;;26.25;22.75;;;;;;;;4991696;28;45691;-82
2022/01/16 12:38:05;;;;;;;;;21.00;18.25;;;;;;;;4973822;28;45817;-82
2022/01/16 12:40:30;;;;;;;;;23.50;21.00;;;;;;;;4991902;28;45669;-82
2022/01/16 12:42:55;;;;;;;;;19.00;18.75;;;;;;;;4992384;28;45535;-82
2022/01/16 12:45:21;;;;;;;;;18.33;15.67;;;;;;;;4991798;28;45448;-82
2022/01/16 12:47:47;;;;;;;;;26.00;25.33;;;;;;;;4992138;28;45566;-82
2022/01/16 12:50:12;;;;;;;;;25.50;24.50;;;;;;;;4973935;28;48766;-82
2022/01/16 12:52:44;;;;;;;;;31.00;26.50;;;;;;;;4991612;28;45359;-83
2022/01/16 12:55:10;;;;;;;;;21.75;21.75;;;;;;;;4991946;28;45414;-83
2022/01/16 12:57:35;;;;;;;;;27.25;25.00;;;;;;;;4974192;28;45512;-83
2022/01/16 13:00:08;;;;;;;;;22.75;22.75;;;;;;;;4991599;28;46467;-82
2022/01/16 13:02:33;;;;;;;;;22.25;16.75;;;;;;;;4974009;28;45708;-83
2022/01/16 13:04:58;;;;;;;;;25.00;21.33;;;;;;;;4974265;28;45391;-82
2022/01/16 13:07:24;;;;;;;;;30.00;26.67;;;;;;;;4990774;28;45574;-83
2022/01/16 13:09:49;;;;;;;;;32.25;21.50;;;;;;;;4974439;28;47417;-82
2022/01/16 13:12:15;;;;;;;;;29.33;26.00;;;;;;;;4973816;28;46148;-82
2022/01/16 13:14:42;;;;;;;;;28.33;26.00;;;;;;;;4991781;28;45440;-82
2022/01/16 13:17:08;;;;;;;;;27.50;25.50;;;;;;;;4973710;28;45595;-81
2022/01/16 13:19:50;;;;;;;;;29.25;24.00;;;;;;;;4973576;28;47436;-82
2022/01/16 13:22:16;;;;;;;;;21.00;19.25;;;;;;;;4972971;28;46046;-82
2022/01/16 13:25:10;;;;;;;;;20.75;19.25;;;;;;;;4974041;28;45396;-82
2022/01/16 13:27:38;;;;;;;;;23.25;22.25;;;;;;;;4978240;28;45368;-82
2022/01/16 13:30:03;;;;;;;;;23.75;22.75;;;;;;;;4973399;28;48240;-82
2022/01/16 13:32:29;;;;;;;;;19.00;18.00;;;;;;;;4990992;28;45716;-82
2022/01/16 13:34:55;;;;;;;;;23.00;19.50;;;;;;;;4973790;28;45454;-82
2022/01/16 13:37:22;;;;;;;;;21.75;19.75;;;;;;;;4990553;28;45254;-82
2022/01/16 13:39:52;;;;;;;;;23.00;19.00;;;;;;;;4991137;28;46387;-82
2022/01/16 13:42:50;;;;;;;;;24.50;22.25;;;;;;;;4991286;28;45492;-82
2022/01/16 13:45:25;;;;;;;;;24.25;23.25;;;;;;;;4973063;28;45485;-82
2022/01/16 13:47:58;;;;;;;;;28.00;24.75;;;;;;;;4991549;28;45382;-82
2022/01/16 13:50:25;;;;;;;;;26.50;23.00;;;;;;;;4990920;28;45567;-82
2022/01/16 13:52:58;;;;;;;;;28.25;27.00;;;;;;;;4990850;28;45375;-82
2022/01/16 13:55:24;;;;;;;;;31.00;28.00;;;;;;;;4990467;28;45476;-82
2022/01/16 13:57:49;;;;;;;;;29.00;26.75;;;;;;;;4991539;28;45610;-82
2022/01/16 14:00:15;;;;;;;;;27.67;23.33;;;;;;;;4972580;28;47949;-82
2022/01/16 14:02:40;;;;;;;;;28.50;24.25;;;;;;;;4972966;28;45483;-82
2022/01/16 14:05:06;;;;;;;;;24.67;22.33;;;;;;;;4991575;28;45726;-82
2022/01/16 14:07:31;;;;;;;;;26.50;23.50;;;;;;;;4990121;28;45538;-82
2022/01/16 14:09:56;;;;;;;;;31.00;27.00;;;;;;;;4991127;28;46447;-82
2022/01/16 14:12:22;;;;;;;;;33.50;28.25;;;;;;;;4972629;28;45827;-82
2022/01/16 14:14:49;;;;;;;;;30.75;27.50;;;;;;;;4973086;28;45657;-82
2022/01/16 14:17:28;;;;;;;;;33.00;28.75;;;;;;;;4972891;28;45645;-82
2022/01/16 14:20:11;;;;;;;;;27.50;27.00;;;;;;;;4991076;28;46145;-82
2022/01/16 14:22:37;;;;;;;;;29.75;28.50;;;;;;;;4990025;28;45640;-82
2022/01/16 14:25:03;;;;;;;;;29.67;24.00;;;;;;;;4972899;28;45429;-82
2022/01/16 14:27:30;;;;;;;;;29.75;28.50;;;;;;;;4990379;28;45400;-82
2022/01/16 14:29:58;;;;;;;;;31.00;25.00;;;;;;;;4972578;28;47321;-82
2022/01/16 14:32:24;;;;;;;;;30.25;27.25;;;;;;;;4989996;28;45873;-82
2022/01/16 14:34:50;;;;;;;;;28.25;25.50;;;;;;;;4990889;28;45424;-82
2022/01/16 14:37:17;;;;;;;;;24.50;22.25;;;;;;;;4989753;28;45411;-82
2022/01/16 14:39:44;;;;;;;;;26.75;25.75;;;;;;;;4990692;28;45393;-82
2022/01/16 14:42:09;;;;;;;;;30.50;25.75;;;;;;;;4990301;28;45457;-82
2022/01/16 14:44:35;;;;;;;;;31.67;28.00;;;;;;;;4972682;28;45664;-82
2022/01/16 14:47:02;;;;;;;;;28.00;26.00;;;;;;;;4972712;28;45432;-82
2022/01/16 14:49:27;;;;;;;;;29.50;23.75;;;;;;;;4990263;28;47784;-82
2022/01/16 14:51:53;;;;;;;;;25.67;24.00;;;;;;;;4989910;28;45522;-82
2022/01/16 14:54:19;;;;;;;;;26.75;26.25;;;;;;;;4990137;28;45577;-82
2022/01/16 14:56:44;;;;;;;;;28.50;26.25;;;;;;;;4990754;28;45662;-82
2022/01/16 14:59:10;;;;;;;;;30.00;25.00;;;;;;;;4989037;28;45377;-82
2022/01/16 15:01:37;;;;;;;;;26.25;25.50;;;;;;;;4990025;28;45594;-82
2022/01/16 15:04:03;;;;;;;;;27.25;23.75;;;;;;;;4990162;28;45543;-82
2022/01/16 15:06:28;;;;;;;;;31.00;25.25;;;;;;;;4971452;28;45390;-82
2022/01/16 15:08:57;;;;;;;;;34.33;24.00;;;;;;;;4990396;28;46440;-81